Time;durP1;ratioP1;P1;durP2;ratioP2;P2;SDS_P1;SDS_P2;PMS_P1;PMS_P2;Temp;Humidity;BMP_temperature;BMP_pressure;BME280_temperature;BME280_humidity;BME280_pressure;Samples;Min_cycle;Max_cycle;Signal;HPM_P1;HPM_P2
2021/01/12 00:02:02;;;;;;;45.77;26.13;;;-2.20;99.90;;;;;;5012677;28;20306;-81
2021/01/12 00:04:28;;;;;;;38.90;25.77;;;-2.20;99.90;;;;;;5013293;28;20203;-80
2021/01/12 00:06:55;;;;;;;41.07;26.30;;;-2.20;99.90;;;;;;5013133;28;20211;-81
2021/01/12 00:09:22;;;;;;;36.43;24.03;;;-2.20;99.90;;;;;;5012818;28;20669;-84
2021/01/12 00:11:48;;;;;;;35.17;24.67;;;-2.20;99.90;;;;;;5013288;28;20237;-85
2021/01/12 00:14:34;;;;;;;41.97;25.07;;;-2.10;99.90;;;;;;5013057;28;20218;-82
2021/01/12 00:17:02;;;;;;;39.03;23.60;;;-2.10;99.90;;;;;;5012606;28;20681;-72
2021/01/12 00:19:29;;;;;;;37.80;22.80;;;-2.10;99.90;;;;;;5012604;28;20207;-80
2021/01/12 00:21:56;;;;;;;34.37;22.23;;;-2.10;99.90;;;;;;5012319;28;20696;-80
2021/01/12 00:24:24;;;;;;;39.63;23.87;;;-2.20;99.90;;;;;;5012515;28;20679;-80
2021/01/12 00:26:50;;;;;;;35.27;22.23;;;-2.20;99.90;;;;;;5012949;28;20209;-69
2021/01/12 00:29:17;;;;;;;37.67;23.83;;;-2.10;99.90;;;;;;5013019;28;20689;-78
2021/01/12 00:31:45;;;;;;;34.90;22.67;;;-2.00;99.90;;;;;;5012330;28;20722;-71
2021/01/12 00:34:12;;;;;;;35.37;22.73;;;-1.70;99.90;;;;;;5012475;28;20214;-79
2021/01/12 00:36:40;;;;;;;42.40;22.93;;;-1.50;99.90;;;;;;5012155;28;20239;-83
2021/01/12 00:39:07;;;;;;;37.83;24.23;;;-1.50;99.90;;;;;;5012454;28;20784;-80
2021/01/12 00:41:35;;;;;;;32.50;21.87;;;-1.60;99.90;;;;;;5012619;28;20257;-81
2021/01/12 00:44:02;;;;;;;47.80;25.47;;;-1.60;99.90;;;;;;5012370;28;20295;-83
2021/01/12 00:46:28;;;;;;;43.23;25.40;;;-1.70;99.90;;;;;;5012433;28;20210;-79
2021/01/12 00:48:55;;;;;;;35.27;23.23;;;-1.80;99.90;;;;;;5011868;28;20678;-79
2021/01/12 00:51:21;;;;;;;38.73;22.50;;;-1.90;99.90;;;;;;5012392;28;20231;-84
2021/01/12 00:53:48;;;;;;;38.13;23.93;;;-2.00;99.90;;;;;;5011684;28;20213;-78
2021/01/12 00:56:15;;;;;;;42.03;22.53;;;-2.00;99.90;;;;;;5011485;28;20216;-77
2021/01/12 00:58:42;;;;;;;31.67;20.00;;;-2.10;99.90;;;;;;5011869;28;20273;-77
2021/01/12 01:01:09;;;;;;;29.67;20.83;;;-2.10;99.90;;;;;;5011411;28;20329;-78
2021/01/12 01:03:35;;;;;;;32.07;20.03;;;-2.10;99.90;;;;;;5011795;28;20216;-76
2021/01/12 01:06:06;;;;;;;34.57;19.73;;;-2.10;99.90;;;;;;5011163;28;20233;-74
2021/01/12 01:08:32;;;;;;;28.87;19.80;;;-2.10;99.90;;;;;;5011434;28;20207;-79
2021/01/12 01:11:02;;;;;;;29.87;19.90;;;-2.20;99.90;;;;;;5011019;28;20237;-80
2021/01/12 01:13:28;;;;;;;31.10;18.30;;;-2.20;99.90;;;;;;5011927;28;20207;-77
2021/01/12 01:15:55;;;;;;;30.40;18.70;;;-2.20;99.90;;;;;;5011359;28;20575;-82
2021/01/12 01:18:22;;;;;;;31.80;17.77;;;-2.10;99.90;;;;;;5011481;28;20685;-80
2021/01/12 01:20:49;;;;;;;25.50;18.27;;;-2.10;99.90;;;;;;5011666;28;20211;-75
2021/01/12 01:23:15;;;;;;;28.53;17.00;;;-2.10;99.90;;;;;;5011794;28;20214;-81
2021/01/12 01:25:42;;;;;;;25.63;17.37;;;-2.00;99.90;;;;;;5011555;28;20210;-80
2021/01/12 01:28:08;;;;;;;24.50;16.03;;;-2.10;99.90;;;;;;5010961;28;20707;-81
2021/01/12 01:30:34;;;;;;;27.77;16.23;;;-2.10;99.90;;;;;;5012005;28;20206;-80
2021/01/12 01:33:02;;;;;;;26.97;15.93;;;-2.10;99.90;;;;;;5011453;28;20242;-79
2021/01/12 01:35:28;;;;;;;26.80;16.00;;;-2.10;99.90;;;;;;5011552;28;20211;-82
2021/01/12 01:37:55;;;;;;;28.33;16.53;;;-2.20;99.90;;;;;;5011008;28;20222;-74
2021/01/12 01:40:22;;;;;;;25.90;16.33;;;-2.10;99.90;;;;;;5011613;28;20574;-82
2021/01/12 01:42:49;;;;;;;25.83;17.43;;;-2.10;99.90;;;;;;5011232;28;20218;-82
2021/01/12 01:45:17;;;;;;;24.87;16.27;;;-2.20;99.90;;;;;;5011249;28;20684;-80
2021/01/12 01:47:44;;;;;;;21.73;14.93;;;-2.10;99.90;;;;;;5011436;28;20229;-74
2021/01/12 01:50:14;;;;;;;26.10;16.37;;;-2.20;99.90;;;;;;5010461;28;20250;-78
2021/01/12 01:52:41;;;;;;;22.50;15.07;;;-2.30;99.90;;;;;;5011183;28;20240;-82
2021/01/12 01:55:08;;;;;;;24.33;15.50;;;-2.30;99.90;;;;;;5010900;28;20220;-80
2021/01/12 01:57:35;;;;;;;30.93;16.83;;;-2.30;99.90;;;;;;5010984;28;20246;-80
2021/01/12 02:00:04;;;;;;;21.47;14.53;;;-2.20;99.90;;;;;;5010981;28;20207;-80
2021/01/12 02:02:30;;;;;;;26.17;15.07;;;-2.20;99.90;;;;;;5013041;28;20206;-79
2021/01/12 02:05:02;;;;;;;28.43;17.33;;;-2.20;99.90;;;;;;5014584;28;20210;-80
2021/01/12 02:07:31;;;;;;;27.77;17.13;;;-2.20;99.90;;;;;;5014496;28;20211;-75
2021/01/12 02:10:00;;;;;;;23.57;16.23;;;-2.30;99.90;;;;;;5014653;28;20216;-77
2021/01/12 02:12:28;;;;;;;26.17;17.00;;;-2.20;99.90;;;;;;5014557;28;20275;-80
2021/01/12 02:14:56;;;;;;;26.10;17.67;;;-2.30;99.90;;;;;;5014925;28;20255;-82
2021/01/12 02:17:27;;;;;;;24.07;15.07;;;-2.30;99.90;;;;;;5014773;28;20260;-80
2021/01/12 02:19:54;;;;;;;24.07;14.97;;;-2.30;99.90;;;;;;5014527;28;20224;-74
2021/01/12 02:22:23;;;;;;;27.50;15.10;;;-2.30;99.90;;;;;;5015103;28;20215;-78
2021/01/12 02:24:51;;;;;;;28.27;16.10;;;-2.40;99.90;;;;;;5014364;28;20212;-78
2021/01/12 02:27:21;;;;;;;24.83;16.50;;;-2.40;99.90;;;;;;5014481;28;20235;-74
2021/01/12 02:29:49;;;;;;;26.03;17.87;;;-2.40;99.90;;;;;;5014329;28;20217;-80
2021/01/12 02:32:16;;;;;;;30.27;17.93;;;-2.40;99.90;;;;;;5014664;28;20220;-82
2021/01/12 02:34:45;;;;;;;34.73;18.07;;;-2.40;99.90;;;;;;5014982;28;20212;-81
2021/01/12 02:37:14;;;;;;;32.67;17.97;;;-2.40;99.90;;;;;;5014682;28;20256;-83
2021/01/12 02:39:42;;;;;;;30.37;17.63;;;-2.40;99.90;;;;;;5014744;28;20237;-81
2021/01/12 02:42:19;;;;;;;25.63;16.40;;;-2.40;99.90;;;;;;5014180;28;20205;-83
2021/01/12 02:44:45;;;;;;;29.17;18.33;;;-2.40;99.90;;;;;;5015122;28;20217;-83
2021/01/12 02:47:12;;;;;;;27.63;18.53;;;-2.50;99.90;;;;;;5014707;28;20276;-83
2021/01/12 02:49:38;;;;;;;30.73;19.03;;;-2.60;99.90;;;;;;5014895;28;20207;-82
2021/01/12 02:52:05;;;;;;;30.53;19.57;;;-2.70;99.90;;;;;;5014178;28;20292;-79
2021/01/12 02:54:32;;;;;;;29.33;17.90;;;-2.70;99.90;;;;;;5014480;28;20618;-80
2021/01/12 02:56:59;;;;;;;27.37;18.63;;;-2.70;99.90;;;;;;5013798;28;20217;-82
2021/01/12 02:59:26;;;;;;;28.23;18.10;;;-2.60;99.90;;;;;;5014506;28;20211;-82
2021/01/12 03:01:53;;;;;;;27.93;17.13;;;-2.60;99.90;;;;;;5014147;28;20217;-76
2021/01/12 03:04:19;;;;;;;24.33;18.03;;;-2.60;99.90;;;;;;5014013;28;20726;-78
2021/01/12 03:06:45;;;;;;;29.27;19.70;;;-2.50;99.90;;;;;;5014546;28;20210;-83
2021/01/12 03:09:12;;;;;;;29.57;19.03;;;-2.50;99.90;;;;;;5013693;28;20209;-82
2021/01/12 03:11:38;;;;;;;28.77;18.63;;;-2.60;99.90;;;;;;5013811;28;20225;-82
2021/01/12 03:14:05;;;;;;;30.70;19.90;;;-2.60;99.90;;;;;;5013663;28;20213;-74
2021/01/12 03:16:34;;;;;;;28.20;18.73;;;-2.50;99.90;;;;;;5014517;28;20211;-79
2021/01/12 03:19:01;;;;;;;31.10;18.90;;;-2.30;99.90;;;;;;5013938;28;20210;-77
2021/01/12 03:21:28;;;;;;;29.70;20.67;;;-2.20;99.90;;;;;;5000753;28;20214;-77
2021/01/12 03:23:55;;;;;;;25.10;16.40;;;-2.10;99.90;;;;;;5013111;28;20255;-80
2021/01/12 03:26:22;;;;;;;28.10;18.47;;;-2.10;99.90;;;;;;5013291;28;20238;-77
2021/01/12 03:28:48;;;;;;;33.20;19.50;;;-2.10;99.90;;;;;;5013508;28;20678;-76
2021/01/12 03:31:15;;;;;;;30.20;21.13;;;-2.20;99.90;;;;;;5013700;28;20265;-77
2021/01/12 03:33:42;;;;;;;31.30;17.37;;;-2.20;99.90;;;;;;5013286;28;20215;-78
2021/01/12 03:36:09;;;;;;;28.90;18.30;;;-2.30;99.90;;;;;;5011369;28;20242;-71
2021/01/12 03:38:35;;;;;;;29.13;19.47;;;-2.40;99.90;;;;;;5013665;28;20218;-85
2021/01/12 03:41:02;;;;;;;25.60;16.57;;;-2.50;99.90;;;;;;5013686;28;20213;-84
2021/01/12 03:43:28;;;;;;;29.73;18.50;;;-2.50;99.90;;;;;;5013800;28;20211;-81
2021/01/12 03:45:55;;;;;;;24.80;18.97;;;-2.60;99.90;;;;;;5013690;28;20214;-82
2021/01/12 03:48:21;;;;;;;32.33;21.03;;;-2.60;99.90;;;;;;5013325;28;20268;-80
2021/01/12 03:50:49;;;;;;;27.40;17.80;;;-2.70;99.90;;;;;;5013129;28;20690;-77
2021/01/12 03:53:16;;;;;;;29.77;18.73;;;-2.70;99.90;;;;;;5013152;28;20382;-79
2021/01/12 03:55:42;;;;;;;28.80;18.20;;;-2.70;99.90;;;;;;5013402;28;20214;-81
2021/01/12 03:58:09;;;;;;;26.87;18.50;;;-2.70;99.90;;;;;;5012584;28;20209;-81
2021/01/12 04:00:36;;;;;;;25.10;17.13;;;-2.70;99.90;;;;;;5013345;28;20551;-82
2021/01/12 04:03:03;;;;;;;29.13;18.03;;;-2.60;99.90;;;;;;5012473;28;20214;-81
2021/01/12 04:05:29;;;;;;;35.93;20.50;;;-2.70;99.90;;;;;;5012790;28;20206;-80
2021/01/12 04:08:00;;;;;;;29.53;18.47;;;-2.70;99.90;;;;;;5012062;28;20211;-80
2021/01/12 04:10:26;;;;;;;31.57;19.73;;;-2.80;99.90;;;;;;5012652;28;20207;-77
2021/01/12 04:12:53;;;;;;;24.30;17.43;;;-2.80;99.90;;;;;;5012628;28;20237;-73
2021/01/12 04:15:19;;;;;;;28.97;19.33;;;-2.80;99.90;;;;;;5012583;28;20202;-73
2021/01/12 04:17:45;;;;;;;39.17;18.73;;;-2.80;99.90;;;;;;5013484;28;20216;-83
2021/01/12 04:20:13;;;;;;;45.67;23.90;;;-2.80;99.90;;;;;;5012739;28;20206;-77
2021/01/12 04:22:40;;;;;;;50.10;24.83;;;-2.80;99.90;;;;;;5012549;28;20699;-76
2021/01/12 04:25:08;;;;;;;58.10;25.93;;;-2.80;99.90;;;;;;5011615;28;20248;-76
2021/01/12 04:27:35;;;;;;;55.70;24.30;;;-2.80;99.90;;;;;;5012430;28;20229;-79
2021/01/12 04:30:01;;;;;;;44.03;21.17;;;-2.90;99.90;;;;;;5011901;28;20250;-78
2021/01/12 04:32:28;;;;;;;38.90;23.03;;;-2.90;99.90;;;;;;5012155;28;20249;-77
2021/01/12 04:34:54;;;;;;;41.03;20.63;;;-2.90;99.90;;;;;;5011998;28;20234;-77
2021/01/12 04:37:21;;;;;;;25.70;16.07;;;-2.90;99.90;;;;;;5011694;28;20263;-76
2021/01/12 04:39:47;;;;;;;22.10;15.10;;;-2.90;99.90;;;;;;5012539;28;20213;-80
2021/01/12 04:42:15;;;;;;;24.60;16.17;;;-2.90;99.90;;;;;;5012421;28;20209;-72
2021/01/12 04:44:41;;;;;;;20.33;14.77;;;-2.90;99.90;;;;;;5012278;28;20213;-77
2021/01/12 04:47:07;;;;;;;28.20;18.33;;;-3.00;99.90;;;;;;5011411;28;20229;-75
2021/01/12 04:49:34;;;;;;;21.17;14.73;;;-2.90;99.90;;;;;;5011682;28;20241;-77
2021/01/12 04:52:01;;;;;;;22.73;16.40;;;-2.90;99.90;;;;;;5011910;28;20264;-83
2021/01/12 04:54:32;;;;;;;23.40;15.73;;;-3.00;99.90;;;;;;5012196;28;20211;-84
2021/01/12 04:56:58;;;;;;;23.00;16.20;;;-3.00;99.90;;;;;;5011442;28;20304;-78
2021/01/12 04:59:29;;;;;;;24.07;15.33;;;-3.00;99.90;;;;;;5011679;28;20776;-74
2021/01/12 05:01:56;;;;;;;27.97;17.20;;;-3.10;99.90;;;;;;5012635;28;20681;-79
2021/01/12 05:04:23;;;;;;;19.30;13.80;;;-3.00;99.90;;;;;;5016485;28;20233;-76
2021/01/12 05:06:50;;;;;;;23.87;13.90;;;-3.10;99.90;;;;;;5000447;28;20217;-82
2021/01/12 05:09:23;;;;;;;25.83;16.23;;;-3.10;99.90;;;;;;5014131;28;20699;-83
2021/01/12 05:11:49;;;;;;;25.70;16.90;;;-3.00;99.90;;;;;;5011444;28;20752;-79
2021/01/12 05:14:17;;;;;;;21.97;14.23;;;-3.00;99.90;;;;;;5011731;28;20257;-80
2021/01/12 05:16:47;;;;;;;24.37;15.87;;;-3.10;99.90;;;;;;5011538;28;20205;-78
2021/01/12 05:19:20;;;;;;;23.90;17.47;;;-3.20;99.90;;;;;;5011338;28;20668;-76
2021/01/12 05:21:47;;;;;;;22.00;15.17;;;-3.20;99.90;;;;;;5011460;28;20219;-69
2021/01/12 05:24:18;;;;;;;23.73;14.83;;;-3.20;99.90;;;;;;5011215;28;20303;-80
2021/01/12 05:26:44;;;;;;;21.47;14.40;;;-3.20;99.90;;;;;;5011614;28;20204;-79
2021/01/12 05:29:11;;;;;;;20.90;14.70;;;-3.10;99.90;;;;;;5011063;28;20240;-80
2021/01/12 05:31:38;;;;;;;23.73;15.60;;;-3.00;99.90;;;;;;5011400;28;20235;-70
2021/01/12 05:34:07;;;;;;;23.13;16.03;;;-2.80;99.90;;;;;;5011017;28;20208;-75
2021/01/12 05:36:35;;;;;;;22.63;14.80;;;-2.70;99.90;;;;;;5010196;28;20239;-74
2021/01/12 05:39:03;;;;;;;20.23;12.60;;;-2.70;99.90;;;;;;5010271;28;20211;-74
2021/01/12 05:41:30;;;;;;;21.63;15.47;;;-2.60;99.90;;;;;;5011018;28;20216;-76
2021/01/12 05:43:57;;;;;;;21.27;13.83;;;-2.50;99.90;;;;;;5010175;28;20212;-75
2021/01/12 05:46:24;;;;;;;20.70;13.93;;;-2.40;99.90;;;;;;5010699;28;20206;-73
2021/01/12 05:48:50;;;;;;;19.27;13.63;;;-2.40;99.90;;;;;;5010582;28;20247;-70
2021/01/12 05:51:18;;;;;;;23.50;14.07;;;-2.30;99.90;;;;;;5010649;28;20215;-69
2021/01/12 05:54:09;;;;;;;20.93;14.17;;;-2.30;99.90;;;;;;5009469;28;20640;-72
2021/01/12 05:56:37;;;;;;;23.77;16.03;;;-2.20;99.90;;;;;;4998193;28;20583;-72
2021/01/12 05:59:16;;;;;;;20.77;14.47;;;-2.20;99.90;;;;;;5010653;28;20240;-74
2021/01/12 06:01:53;;;;;;;19.47;13.17;;;-2.10;99.90;;;;;;5005021;28;20215;-75
2021/01/12 06:04:19;;;;;;;17.00;11.80;;;-2.10;99.90;;;;;;5010157;28;20219;-72
2021/01/12 06:06:49;;;;;;;25.63;14.17;;;-2.10;99.90;;;;;;5010830;28;20214;-75
2021/01/12 06:09:16;;;;;;;18.87;14.07;;;-2.10;99.90;;;;;;5010405;28;20211;-75
2021/01/12 06:11:45;;;;;;;20.27;14.47;;;-2.10;99.90;;;;;;5010814;28;20225;-75
2021/01/12 06:14:12;;;;;;;18.33;13.27;;;-2.10;99.90;;;;;;5010657;28;20275;-74
2021/01/12 06:16:40;;;;;;;16.47;12.57;;;-2.00;99.90;;;;;;5010308;28;20210;-73
2021/01/12 06:19:10;;;;;;;21.13;12.00;;;-2.20;99.90;;;;;;5010332;28;20248;-73
2021/01/12 06:21:48;;;;;;;19.40;11.67;;;-2.20;99.90;;;;;;5010253;28;20715;-74
2021/01/12 06:24:25;;;;;;;22.87;12.20;;;-2.40;99.90;;;;;;5010353;28;20239;-74
2021/01/12 06:26:53;;;;;;;23.10;12.83;;;-2.50;99.90;;;;;;5009819;28;20210;-71
2021/01/12 06:29:20;;;;;;;18.03;15.27;;;-2.50;99.90;;;;;;5010543;28;20208;-74
2021/01/12 06:31:47;;;;;;;20.13;13.07;;;-2.60;99.90;;;;;;5010530;28;20280;-73
2021/01/12 06:34:18;;;;;;;21.37;12.33;;;-2.60;99.90;;;;;;5010262;28;20696;-73
2021/01/12 06:36:51;;;;;;;25.00;11.70;;;-2.70;99.90;;;;;;5010410;28;20692;-71
2021/01/12 06:39:22;;;;;;;18.43;13.03;;;-2.80;99.90;;;;;;4999247;28;20218;-71
2021/01/12 06:41:49;;;;;;;21.10;11.63;;;-2.70;99.90;;;;;;5007332;28;20679;-67
2021/01/12 06:44:26;;;;;;;21.07;13.17;;;-2.70;99.90;;;;;;5005769;28;20215;-74
2021/01/12 06:46:54;;;;;;;20.77;12.27;;;-2.70;99.90;;;;;;5009935;28;20204;-72
2021/01/12 06:49:23;;;;;;;23.07;14.23;;;-2.70;99.90;;;;;;5013306;28;20211;-72
2021/01/12 06:51:59;;;;;;;23.27;17.40;;;-2.60;99.90;;;;;;5013760;28;20715;-70
2021/01/12 06:54:32;;;;;;;16.43;11.77;;;-2.60;99.90;;;;;;5013658;28;20263;-76
2021/01/12 06:57:00;;;;;;;25.80;17.93;;;-2.50;99.90;;;;;;5013055;28;20220;-70
2021/01/12 06:59:34;;;;;;;26.70;23.97;;;-2.60;99.90;;;;;;5013321;28;20632;-73
2021/01/12 07:02:04;;;;;;;24.77;15.07;;;-2.60;99.90;;;;;;5012952;28;20563;-73
2021/01/12 07:04:31;;;;;;;28.03;18.93;;;-2.60;99.90;;;;;;5013169;28;20672;-71
2021/01/12 07:06:58;;;;;;;20.70;13.67;;;-2.50;99.90;;;;;;5013215;28;20215;-69
2021/01/12 07:09:25;;;;;;;27.93;24.43;;;-2.60;99.90;;;;;;5013303;28;20668;-76
2021/01/12 07:12:07;;;;;;;24.27;15.43;;;-2.50;99.90;;;;;;5012961;28;20262;-72
2021/01/12 07:14:44;;;;;;;21.47;18.07;;;-2.60;99.90;;;;;;5013444;28;20211;-73
2021/01/12 07:17:10;;;;;;;19.13;15.53;;;-2.60;99.90;;;;;;5012660;28;20196;-75
2021/01/12 07:19:37;;;;;;;24.43;20.20;;;-2.50;99.90;;;;;;5013213;28;20221;-70
2021/01/12 07:22:16;;;;;;;31.93;27.10;;;-2.60;99.90;;;;;;5012693;28;20219;-68
2021/01/12 07:24:45;;;;;;;23.00;17.93;;;-2.50;99.90;;;;;;5013677;28;20221;-73
2021/01/12 07:27:16;;;;;;;16.63;11.23;;;-2.40;99.90;;;;;;5012615;28;20209;-75
2021/01/12 07:29:48;;;;;;;17.53;11.00;;;-2.50;99.90;;;;;;5013494;28;20204;-75
2021/01/12 07:32:25;;;;;;;14.57;10.57;;;-2.30;99.90;;;;;;5012435;28;20247;-72
2021/01/12 07:34:55;;;;;;;19.27;10.33;;;-2.20;99.90;;;;;;5012778;28;20204;-71
2021/01/12 07:37:27;;;;;;;17.43;12.07;;;-2.10;99.90;;;;;;5012776;28;20204;-76
2021/01/12 07:39:54;;;;;;;25.33;12.87;;;-2.10;99.90;;;;;;5012755;28;20200;-75
2021/01/12 07:42:21;;;;;;;20.40;12.70;;;-2.00;99.90;;;;;;5012628;28;20210;-75
2021/01/12 07:44:48;;;;;;;16.13;11.67;;;-1.80;99.90;;;;;;5012888;28;20656;-76
2021/01/12 07:47:15;;;;;;;21.27;11.57;;;-1.70;99.90;;;;;;5013161;28;20213;-73
2021/01/12 07:49:42;;;;;;;16.73;10.03;;;-1.60;99.90;;;;;;5012726;28;20209;-77
2021/01/12 07:52:09;;;;;;;13.37;8.10;;;-1.60;99.90;;;;;;5012015;28;20285;-71
2021/01/12 07:54:36;;;;;;;14.23;8.87;;;-1.70;99.90;;;;;;5012336;28;20206;-77
2021/01/12 07:57:03;;;;;;;17.30;8.83;;;-1.80;99.90;;;;;;5012165;28;20220;-76
2021/01/12 07:59:30;;;;;;;15.93;8.40;;;-1.80;99.90;;;;;;5011294;28;20212;-71
2021/01/12 08:01:57;;;;;;;15.57;9.00;;;-1.80;99.90;;;;;;5012414;28;20251;-75
2021/01/12 08:04:24;;;;;;;17.63;10.40;;;-1.60;99.90;;;;;;5012652;28;20692;-80
2021/01/12 08:06:50;;;;;;;15.33;8.67;;;-1.30;99.90;;;;;;4998817;28;20214;-67
2021/01/12 08:09:23;;;;;;;13.90;9.20;;;-1.10;99.90;;;;;;5012569;28;20217;-70
2021/01/12 08:11:52;;;;;;;14.83;9.30;;;-0.80;99.90;;;;;;5012067;28;20226;-75
2021/01/12 08:14:22;;;;;;;13.67;9.33;;;-0.60;99.90;;;;;;5012361;28;20207;-71
2021/01/12 08:16:51;;;;;;;13.50;8.73;;;-0.40;99.90;;;;;;5012142;28;20256;-72
2021/01/12 08:19:25;;;;;;;16.00;9.33;;;-0.30;99.90;;;;;;5012443;28;20219;-73
2021/01/12 08:21:52;;;;;;;20.17;10.90;;;-0.20;99.90;;;;;;5011750;28;20277;-74
2021/01/12 08:24:23;;;;;;;12.90;8.83;;;-0.30;99.90;;;;;;5012000;28;20237;-73
2021/01/12 08:26:50;;;;;;;12.53;9.80;;;-0.30;99.90;;;;;;5011872;28;20709;-74
2021/01/12 08:29:21;;;;;;;13.33;9.47;;;-0.30;99.90;;;;;;5011952;28;20227;-70
2021/01/12 08:32:01;;;;;;;13.73;8.53;;;-0.50;99.90;;;;;;5011884;28;20231;-76
2021/01/12 08:34:28;;;;;;;17.57;10.87;;;-0.40;99.90;;;;;;5011995;28;20211;-76
2021/01/12 08:36:58;;;;;;;14.93;10.53;;;-0.30;99.90;;;;;;5011241;28;20697;-79
2021/01/12 08:39:26;;;;;;;15.23;9.53;;;-0.10;99.90;;;;;;5012096;28;20552;-80
2021/01/12 08:41:54;;;;;;;15.53;9.80;;;0.00;99.90;;;;;;5011633;28;20208;-76
2021/01/12 08:44:23;;;;;;;17.83;10.57;;;0.10;99.90;;;;;;5011852;28;20243;-79
2021/01/12 08:46:51;;;;;;;18.30;10.17;;;0.30;99.90;;;;;;5011832;28;20215;-77
2021/01/12 08:49:17;;;;;;;14.80;8.67;;;0.30;99.90;;;;;;5009429;28;20212;-69
2021/01/12 08:51:44;;;;;;;15.97;9.53;;;0.40;99.90;;;;;;5001742;28;20212;-73
2021/01/12 08:54:15;;;;;;;18.43;9.00;;;0.50;99.90;;;;;;5012034;28;20378;-74
2021/01/12 08:56:42;;;;;;;13.77;9.13;;;0.70;99.90;;;;;;4999305;28;20640;-78
2021/01/12 08:59:08;;;;;;;15.20;9.80;;;0.70;99.90;;;;;;5006613;28;20217;-74
2021/01/12 09:01:38;;;;;;;17.53;12.03;;;0.90;99.90;;;;;;5019732;28;20218;-75
2021/01/12 09:04:08;;;;;;;16.13;9.07;;;1.10;99.90;;;;;;5012968;28;20239;-73
2021/01/12 09:06:35;;;;;;;14.93;8.80;;;0.90;99.90;;;;;;5010231;28;20270;-76
2021/01/12 09:09:12;;;;;;;12.33;8.60;;;0.90;99.90;;;;;;5012396;28;20208;-76
2021/01/12 09:11:46;;;;;;;14.50;8.73;;;1.10;99.90;;;;;;5011669;28;20558;-79
2021/01/12 09:14:13;;;;;;;12.93;7.70;;;1.30;99.90;;;;;;5013759;28;20210;-76
2021/01/12 09:16:42;;;;;;;14.27;9.47;;;1.40;99.90;;;;;;5012414;28;20598;-75
2021/01/12 09:19:17;;;;;;;14.10;8.27;;;1.40;99.90;;;;;;5010457;28;20247;-75
2021/01/12 09:21:44;;;;;;;18.10;8.60;;;1.60;99.90;;;;;;5006820;28;20227;-79
2021/01/12 09:24:17;;;;;;;14.57;8.80;;;1.50;99.90;;;;;;5011819;28;20224;-75
2021/01/12 09:26:43;;;;;;;14.80;8.93;;;1.60;99.90;;;;;;5008778;28;20246;-76
2021/01/12 09:29:10;;;;;;;17.53;9.40;;;1.60;99.90;;;;;;5012444;28;20626;-80
2021/01/12 09:31:47;;;;;;;11.57;8.10;;;1.70;99.90;;;;;;5014643;28;20239;-71
2021/01/12 09:34:20;;;;;;;16.20;8.37;;;1.70;99.90;;;;;;5011523;28;20206;-81
2021/01/12 09:36:47;;;;;;;13.70;7.73;;;1.90;99.90;;;;;;5014950;28;20203;-74
2021/01/12 09:39:14;;;;;;;11.73;7.23;;;1.90;99.90;;;;;;5012567;28;20211;-75
2021/01/12 09:41:41;;;;;;;7.73;6.73;;;2.20;99.90;;;;;;5010997;28;20597;-70
2021/01/12 09:44:08;;;;;;;13.23;8.83;;;2.70;99.90;;;;;;5010541;28;20213;-70
2021/01/12 09:46:36;;;;;;;11.30;7.80;;;3.00;99.90;;;;;;5016214;28;20691;-72
2021/01/12 09:49:03;;;;;;;12.07;7.87;;;4.60;99.90;;;;;;5006886;28;20211;-73
2021/01/12 09:51:30;;;;;;;10.30;7.80;;;4.10;99.90;;;;;;5010979;28;20239;-75
2021/01/12 09:53:56;;;;;;;8.53;7.63;;;4.00;99.90;;;;;;5010396;28;20243;-70
2021/01/12 09:56:23;;;;;;;9.83;7.50;;;4.40;99.90;;;;;;5020448;28;20216;-72
2021/01/12 09:58:51;;;;;;;11.47;7.20;;;4.40;99.90;;;;;;5020767;28;20211;-70
2021/01/12 10:01:19;;;;;;;11.83;7.30;;;4.80;99.90;;;;;;5016740;28;20269;-71
2021/01/12 10:03:46;;;;;;;13.23;7.53;;;5.70;99.90;;;;;;5010988;28;20871;-76
2021/01/12 10:06:17;;;;;;;10.37;7.00;;;6.40;99.90;;;;;;5013716;28;20207;-73
2021/01/12 10:08:46;;;;;;;12.60;8.97;;;6.50;99.90;;;;;;5015504;28;20330;-73
2021/01/12 10:11:13;;;;;;;12.03;6.63;;;5.90;99.90;;;;;;5012101;28;20204;-75
2021/01/12 10:13:39;;;;;;;10.90;8.43;;;5.40;99.90;;;;;;5007714;28;20274;-77
2021/01/12 10:16:06;;;;;;;10.20;6.20;;;4.70;99.90;;;;;;5017812;28;20247;-76
2021/01/12 10:18:32;;;;;;;9.80;7.40;;;4.30;99.90;;;;;;5011975;28;20588;-73
2021/01/12 10:20:59;;;;;;;11.03;6.80;;;4.10;99.90;;;;;;5010173;28;20218;-74
2021/01/12 10:23:25;;;;;;;9.47;6.57;;;4.10;99.90;;;;;;5012548;28;20208;-72
2021/01/12 10:25:53;;;;;;;9.27;6.23;;;4.00;99.90;;;;;;5011945;28;20208;-77
2021/01/12 10:28:19;;;;;;;8.97;7.07;;;4.30;99.90;;;;;;5014301;28;20208;-77
2021/01/12 10:30:47;;;;;;;9.77;7.10;;;4.40;99.90;;;;;;5014803;28;20258;-81
2021/01/12 10:33:13;;;;;;;8.60;6.97;;;4.50;99.90;;;;;;5014142;28;20227;-78
2021/01/12 10:35:40;;;;;;;8.23;6.33;;;4.40;99.90;;;;;;5014317;28;20219;-75
2021/01/12 10:38:06;;;;;;;10.33;7.93;;;4.50;99.90;;;;;;5014446;28;20204;-83
2021/01/12 10:40:32;;;;;;;9.47;7.53;;;4.50;99.90;;;;;;5014311;28;20209;-82
2021/01/12 10:43:00;;;;;;;9.00;8.00;;;4.50;99.90;;;;;;5013996;28;20200;-80
2021/01/12 10:45:27;;;;;;;11.00;7.13;;;4.60;99.90;;;;;;5005962;28;20248;-82
2021/01/12 10:47:56;;;;;;;11.20;7.20;;;4.70;99.90;;;;;;5013793;28;20294;-79
2021/01/12 10:50:22;;;;;;;9.00;7.27;;;4.70;99.90;;;;;;5014620;28;20208;-83
2021/01/12 10:52:49;;;;;;;9.13;6.37;;;4.90;99.90;;;;;;5013747;28;20737;-78
2021/01/12 10:55:15;;;;;;;11.97;6.87;;;4.80;99.90;;;;;;5014345;28;20220;-75
2021/01/12 10:57:44;;;;;;;10.43;7.27;;;4.90;99.90;;;;;;5014095;28;20208;-79
2021/01/12 11:00:14;;;;;;;8.83;7.13;;;4.90;99.90;;;;;;5014013;28;20204;-80
2021/01/12 11:02:44;;;;;;;7.13;6.30;;;4.70;99.90;;;;;;5013856;28;20219;-82
2021/01/12 11:05:11;;;;;;;10.73;7.50;;;4.60;99.90;;;;;;5014276;28;20207;-80
2021/01/12 11:07:45;;;;;;;10.03;6.70;;;4.40;99.90;;;;;;5013835;28;20242;-74
2021/01/12 11:10:12;;;;;;;13.20;8.43;;;4.30;99.90;;;;;;5013614;28;20295;-82
2021/01/12 11:12:39;;;;;;;10.63;7.10;;;4.40;99.90;;;;;;5013877;28;20282;-78
2021/01/12 11:15:07;;;;;;;8.60;6.10;;;4.50;99.90;;;;;;5013629;28;20204;-78
2021/01/12 11:17:34;;;;;;;12.27;8.50;;;4.50;99.90;;;;;;5013877;28;20295;-82
2021/01/12 11:20:03;;;;;;;9.83;6.63;;;4.70;99.90;;;;;;5013414;28;20215;-82
2021/01/12 11:22:30;;;;;;;9.20;6.37;;;4.80;99.90;;;;;;5013694;28;20201;-80
2021/01/12 11:24:57;;;;;;;6.23;4.67;;;5.00;99.90;;;;;;5013391;28;20212;-80
2021/01/12 11:27:23;;;;;;;5.30;3.80;;;5.20;99.90;;;;;;5013254;28;20211;-77
2021/01/12 11:29:52;;;;;;;3.37;2.97;;;5.40;99.90;;;;;;5013459;28;20738;-81
2021/01/12 11:32:19;;;;;;;3.23;2.50;;;5.50;99.90;;;;;;5013331;28;20235;-76
2021/01/12 11:34:47;;;;;;;3.47;2.97;;;5.60;99.90;;;;;;5013761;28;20208;-82
2021/01/12 11:37:14;;;;;;;2.77;1.80;;;5.60;99.90;;;;;;5013241;28;20208;-81
2021/01/12 11:39:41;;;;;;;4.73;2.47;;;5.60;99.90;;;;;;5013347;28;20212;-82
2021/01/12 11:42:11;;;;;;;4.23;2.20;;;5.50;99.90;;;;;;5012781;28;20220;-79
2021/01/12 11:44:38;;;;;;;4.10;2.60;;;5.40;99.90;;;;;;5013211;28;20216;-75
2021/01/12 11:47:05;;;;;;;6.27;3.70;;;5.40;99.90;;;;;;5013029;28;20292;-74
2021/01/12 11:49:31;;;;;;;2.93;2.20;;;5.40;99.90;;;;;;5013227;28;20223;-74
2021/01/12 11:51:59;;;;;;;3.70;2.60;;;5.40;99.90;;;;;;5012676;28;20207;-77
2021/01/12 11:54:25;;;;;;;5.80;3.03;;;5.40;99.90;;;;;;5012878;28;20215;-81
2021/01/12 11:56:56;;;;;;;4.90;2.90;;;5.50;99.90;;;;;;5012642;28;20216;-76
2021/01/12 11:59:24;;;;;;;3.97;3.43;;;5.70;99.90;;;;;;5014294;28;20215;-78
2021/01/12 12:01:52;;;;;;;4.17;3.23;;;6.10;99.90;;;;;;5022037;28;20218;-71
2021/01/12 12:04:20;;;;;;;3.67;2.67;;;6.60;99.90;;;;;;5015443;28;20624;-79
2021/01/12 12:06:50;;;;;;;2.57;2.37;;;7.10;99.90;;;;;;5012623;28;20223;-69
2021/01/12 12:09:19;;;;;;;2.93;1.80;;;7.20;99.90;;;;;;5015070;28;20208;-75
2021/01/12 12:11:46;;;;;;;6.73;2.60;;;7.40;99.90;;;;;;5012674;28;20589;-77
2021/01/12 12:14:14;;;;;;;7.90;4.53;;;7.30;99.90;;;;;;5013056;28;20215;-78
2021/01/12 12:16:43;;;;;;;5.17;3.90;;;7.30;99.90;;;;;;5014936;28;20699;-77
2021/01/12 12:19:10;;;;;;;3.67;2.63;;;7.40;99.90;;;;;;5012343;28;20558;-74
2021/01/12 12:21:36;;;;;;;3.27;2.70;;;7.20;99.90;;;;;;5012268;28;21070;-75
2021/01/12 12:24:03;;;;;;;4.20;3.60;;;7.10;99.90;;;;;;5012135;28;20702;-79
2021/01/12 12:26:31;;;;;;;8.37;3.10;;;6.90;99.90;;;;;;5013150;28;20208;-81
2021/01/12 12:28:57;;;;;;;3.10;2.60;;;6.90;99.90;;;;;;5005661;28;20211;-82
2021/01/12 12:31:24;;;;;;;3.30;1.93;;;7.00;99.90;;;;;;5013029;28;20231;-83
2021/01/12 12:33:51;;;;;;;2.97;2.37;;;6.90;99.90;;;;;;5012230;28;20234;-71
2021/01/12 12:36:18;;;;;;;5.53;3.17;;;7.00;99.90;;;;;;5011954;28;20213;-79
2021/01/12 12:38:45;;;;;;;4.20;2.17;;;7.30;99.90;;;;;;5012503;28;20212;-82
2021/01/12 12:41:14;;;;;;;2.30;1.90;;;7.50;99.90;;;;;;5011896;28;20579;-78